Time;durP1;ratioP1;P1;durP2;ratioP2;P2;SDS_P1;SDS_P2;PMS_P1;PMS_P2;Temp;Humidity;BMP_temperature;BMP_pressure;BME280_temperature;BME280_humidity;BME280_pressure;Samples;Min_cycle;Max_cycle;Signal;HPM_P1;HPM_P2
2023/06/08 00:02:19;;;;;;;12.20;4.85;;;;;;;;;;5114958;28;20036;-64
2023/06/08 00:04:45;;;;;;;8.88;5.25;;;;;;;;;;5094719;28;20024;-65
2023/06/08 00:07:14;;;;;;;12.52;5.65;;;;;;;;;;5094291;28;20469;-64
2023/06/08 00:09:43;;;;;;;14.45;6.38;;;;;;;;;;5094466;28;20488;-65
2023/06/08 00:12:10;;;;;;;9.60;4.72;;;;;;;;;;5094506;28;20386;-64
2023/06/08 00:14:36;;;;;;;13.52;4.72;;;;;;;;;;5094397;28;20032;-65
2023/06/08 00:17:02;;;;;;;8.98;4.72;;;;;;;;;;5094296;28;20506;-65
2023/06/08 00:19:31;;;;;;;8.38;4.75;;;;;;;;;;5094074;28;20106;-65
2023/06/08 00:21:59;;;;;;;9.60;5.00;;;;;;;;;;5094135;28;20035;-65
2023/06/08 00:24:25;;;;;;;15.85;5.45;;;;;;;;;;5094112;28;20031;-65
2023/06/08 00:26:50;;;;;;;11.68;5.38;;;;;;;;;;5094227;28;20493;-65
2023/06/08 00:29:16;;;;;;;11.43;5.65;;;;;;;;;;5094166;28;20032;-64
2023/06/08 00:31:41;;;;;;;10.65;4.88;;;;;;;;;;5094099;28;20028;-63
2023/06/08 00:34:07;;;;;;;12.13;5.07;;;;;;;;;;5093937;28;20051;-63
2023/06/08 00:36:32;;;;;;;10.95;4.72;;;;;;;;;;5092595;28;20389;-63
2023/06/08 00:38:58;;;;;;;16.15;4.78;;;;;;;;;;5101261;28;20063;-63
2023/06/08 00:41:23;;;;;;;14.00;5.05;;;;;;;;;;5114386;27;20027;-63
2023/06/08 00:43:49;;;;;;;15.63;4.60;;;;;;;;;;5114363;28;20093;-63
2023/06/08 00:46:16;;;;;;;8.20;4.57;;;;;;;;;;5114183;28;20023;-63
2023/06/08 00:48:42;;;;;;;17.33;4.93;;;;;;;;;;5113986;28;20481;-63
2023/06/08 00:51:08;;;;;;;10.27;4.65;;;;;;;;;;5114120;28;20023;-64
2023/06/08 00:53:36;;;;;;;14.45;5.15;;;;;;;;;;5114196;28;20047;-64
2023/06/08 00:56:02;;;;;;;14.50;4.80;;;;;;;;;;5114080;28;20027;-63
2023/06/08 00:58:29;;;;;;;12.50;5.35;;;;;;;;;;5112676;28;20578;-64
2023/06/08 01:01:03;;;;;;;11.82;4.68;;;;;;;;;;5113016;28;20035;-63
2023/06/08 01:03:35;;;;;;;13.95;5.18;;;;;;;;;;5104103;28;20031;-64
2023/06/08 01:06:04;;;;;;;7.65;4.65;;;;;;;;;;5093649;28;20032;-64
2023/06/08 01:08:42;;;;;;;9.80;4.90;;;;;;;;;;5093447;28;20047;-64
2023/06/08 01:11:22;;;;;;;10.40;4.50;;;;;;;;;;5093500;28;20036;-63
2023/06/08 01:14:15;;;;;;;12.30;4.75;;;;;;;;;;5093485;28;20024;-65
2023/06/08 01:16:49;;;;;;;11.02;4.07;;;;;;;;;;5082798;28;20481;-64
2023/06/08 01:19:23;;;;;;;12.88;4.40;;;;;;;;;;5093005;28;20109;-64
2023/06/08 01:22:20;;;;;;;16.00;4.82;;;;;;;;;;5093221;28;20224;-64
2023/06/08 01:24:49;;;;;;;16.92;4.78;;;;;;;;;;5093146;28;20020;-64
2023/06/08 01:27:19;;;;;;;12.52;4.38;;;;;;;;;;5093056;28;20497;-63
2023/06/08 01:29:45;;;;;;;13.23;4.60;;;;;;;;;;5093149;28;20032;-64
2023/06/08 01:32:11;;;;;;;14.30;5.03;;;;;;;;;;5092894;28;20077;-64
2023/06/08 01:34:38;;;;;;;9.90;4.40;;;;;;;;;;5092950;28;20380;-64
2023/06/08 01:37:24;;;;;;;9.65;4.28;;;;;;;;;;5091639;28;20035;-66
2023/06/08 01:40:12;;;;;;;10.73;4.90;;;;;;;;;;5107520;28;20077;-66
2023/06/08 01:42:42;;;;;;;7.22;4.72;;;;;;;;;;5113276;28;20472;-63
2023/06/08 01:45:19;;;;;;;11.55;5.28;;;;;;;;;;5113107;28;20031;-64
2023/06/08 01:47:51;;;;;;;8.95;5.35;;;;;;;;;;5111515;28;20489;-64
2023/06/08 01:50:18;;;;;;;9.77;5.15;;;;;;;;;;5113343;28;20024;-65
2023/06/08 01:52:44;;;;;;;8.52;4.88;;;;;;;;;;5113207;28;20465;-64
2023/06/08 01:55:20;;;;;;;13.88;5.18;;;;;;;;;;5113045;28;20031;-65
2023/06/08 01:57:45;;;;;;;13.10;5.50;;;;;;;;;;5113082;28;20121;-63
2023/06/08 02:00:17;;;;;;;11.57;5.70;;;;;;;;;;5113151;28;20160;-65
2023/06/08 02:02:44;;;;;;;10.18;4.85;;;;;;;;;;5109767;28;20032;-64
2023/06/08 02:05:11;;;;;;;14.52;4.60;;;;;;;;;;5092702;28;20024;-64
2023/06/08 02:07:37;;;;;;;7.82;4.30;;;;;;;;;;5092745;28;20521;-63
2023/06/08 02:10:05;;;;;;;8.05;4.90;;;;;;;;;;5092647;28;20043;-65
2023/06/08 02:12:30;;;;;;;10.13;5.63;;;;;;;;;;5094842;28;20024;-65
2023/06/08 02:14:56;;;;;;;13.63;5.28;;;;;;;;;;5096687;28;20492;-64
2023/06/08 02:17:26;;;;;;;13.88;5.20;;;;;;;;;;5096458;28;20103;-64
2023/06/08 02:19:53;;;;;;;8.98;4.95;;;;;;;;;;5096814;28;20050;-65
2023/06/08 02:22:20;;;;;;;14.18;5.57;;;;;;;;;;5096471;28;20040;-63
2023/06/08 02:24:46;;;;;;;11.07;5.47;;;;;;;;;;5096569;28;20024;-64
2023/06/08 02:27:11;;;;;;;13.80;4.65;;;;;;;;;;5096620;28;20077;-64
2023/06/08 02:29:37;;;;;;;10.70;4.72;;;;;;;;;;5096612;28;20330;-64
2023/06/08 02:32:02;;;;;;;10.00;4.97;;;;;;;;;;5096296;28;20032;-64
2023/06/08 02:34:28;;;;;;;16.70;6.05;;;;;;;;;;5096350;28;20417;-64
2023/06/08 02:36:53;;;;;;;11.48;4.93;;;;;;;;;;5096144;28;20127;-64
2023/06/08 02:39:18;;;;;;;12.80;4.85;;;;;;;;;;5106557;28;20043;-64
2023/06/08 02:41:44;;;;;;;18.77;5.43;;;;;;;;;;5116577;28;20032;-65
2023/06/08 02:44:10;;;;;;;10.27;5.28;;;;;;;;;;5116580;27;20481;-64
2023/06/08 02:46:36;;;;;;;11.98;5.40;;;;;;;;;;5116244;28;20031;-65
2023/06/08 02:49:02;;;;;;;8.25;5.32;;;;;;;;;;5116437;28;20075;-64
2023/06/08 02:51:27;;;;;;;7.38;5.00;;;;;;;;;;5116504;28;20479;-64
2023/06/08 02:53:52;;;;;;;10.15;4.90;;;;;;;;;;5116165;28;20066;-64
2023/06/08 02:56:18;;;;;;;9.38;5.32;;;;;;;;;;5116211;28;20038;-64
2023/06/08 02:58:46;;;;;;;13.25;4.78;;;;;;;;;;5115146;28;20476;-64
2023/06/08 03:01:15;;;;;;;13.27;5.38;;;;;;;;;;5116307;28;20051;-64
2023/06/08 03:03:45;;;;;;;10.82;5.03;;;;;;;;;;5105112;27;20024;-65
2023/06/08 03:06:17;;;;;;;7.40;4.55;;;;;;;;;;5095748;28;20107;-64
2023/06/08 03:08:46;;;;;;;8.60;4.97;;;;;;;;;;5095481;28;20035;-64
2023/06/08 03:11:12;;;;;;;8.65;4.93;;;;;;;;;;5095770;28;20024;-64
2023/06/08 03:13:38;;;;;;;9.38;5.00;;;;;;;;;;5094293;28;20107;-64
2023/06/08 03:16:03;;;;;;;9.15;5.20;;;;;;;;;;5095650;28;20044;-64
2023/06/08 03:18:29;;;;;;;8.68;5.65;;;;;;;;;;5095489;28;20024;-64
2023/06/08 03:20:55;;;;;;;9.70;5.85;;;;;;;;;;5095501;28;20024;-65
2023/06/08 03:23:21;;;;;;;11.85;5.57;;;;;;;;;;5094397;28;20036;-64
2023/06/08 03:25:50;;;;;;;9.38;5.15;;;;;;;;;;5095372;28;20020;-65
2023/06/08 03:28:19;;;;;;;10.25;5.15;;;;;;;;;;5095240;28;20028;-65
2023/06/08 03:30:44;;;;;;;8.55;4.70;;;;;;;;;;5095339;28;20081;-64
2023/06/08 03:33:11;;;;;;;7.65;4.93;;;;;;;;;;5095083;28;20028;-64
2023/06/08 03:35:37;;;;;;;9.07;4.90;;;;;;;;;;5095218;28;20474;-64
2023/06/08 03:38:03;;;;;;;10.00;5.28;;;;;;;;;;5095108;28;20047;-63
2023/06/08 03:40:28;;;;;;;14.85;5.70;;;;;;;;;;5115366;28;20086;-63
2023/06/08 03:42:54;;;;;;;9.05;5.70;;;;;;;;;;5115482;28;20027;-63
2023/06/08 03:45:20;;;;;;;12.00;5.95;;;;;;;;;;5115297;28;20051;-63
2023/06/08 03:47:45;;;;;;;8.90;4.95;;;;;;;;;;5115289;28;20047;-63
2023/06/08 03:50:13;;;;;;;10.35;5.05;;;;;;;;;;5115247;28;20051;-64
2023/06/08 03:52:40;;;;;;;8.00;5.03;;;;;;;;;;5115205;28;20027;-64
2023/06/08 03:55:07;;;;;;;8.95;5.25;;;;;;;;;;5115290;28;20054;-63
2023/06/08 03:57:32;;;;;;;8.77;4.80;;;;;;;;;;5115123;28;20092;-63
2023/06/08 03:59:58;;;;;;;9.00;5.25;;;;;;;;;;5115222;28;20260;-64
2023/06/08 04:02:23;;;;;;;8.25;4.68;;;;;;;;;;5114674;28;20084;-63
2023/06/08 04:04:49;;;;;;;9.43;4.28;;;;;;;;;;5094563;28;20052;-64
2023/06/08 04:07:16;;;;;;;9.15;4.95;;;;;;;;;;5094614;28;20020;-64
2023/06/08 04:09:42;;;;;;;13.40;5.05;;;;;;;;;;5094388;28;20024;-64
2023/06/08 04:12:08;;;;;;;8.30;4.90;;;;;;;;;;5094396;28;20407;-64
2023/06/08 04:14:33;;;;;;;11.25;4.85;;;;;;;;;;5094505;28;20028;-64
2023/06/08 04:16:59;;;;;;;7.53;4.68;;;;;;;;;;5093155;28;20071;-64
2023/06/08 04:19:25;;;;;;;14.98;5.32;;;;;;;;;;5094230;28;20024;-65
2023/06/08 04:21:56;;;;;;;12.43;4.95;;;;;;;;;;5094213;28;20028;-64
2023/06/08 04:24:22;;;;;;;14.98;5.32;;;;;;;;;;5094447;28;20021;-64
2023/06/08 04:26:48;;;;;;;13.18;5.18;;;;;;;;;;5094099;28;20355;-64
2023/06/08 04:29:13;;;;;;;32.47;6.95;;;;;;;;;;5094364;28;20045;-64
2023/06/08 04:31:39;;;;;;;8.88;5.10;;;;;;;;;;5094239;28;20035;-65
2023/06/08 04:34:04;;;;;;;9.20;5.30;;;;;;;;;;5094066;28;20077;-64
2023/06/08 04:36:31;;;;;;;13.40;5.03;;;;;;;;;;5093968;28;20032;-64
2023/06/08 04:38:57;;;;;;;10.57;4.60;;;;;;;;;;5100956;28;20034;-65
2023/06/08 04:41:25;;;;;;;12.68;5.00;;;;;;;;;;5114259;28;20024;-65
2023/06/08 04:43:52;;;;;;;10.63;4.55;;;;;;;;;;5114282;28;20023;-64
2023/06/08 04:46:17;;;;;;;10.98;5.55;;;;;;;;;;5114246;28;20035;-64
2023/06/08 04:48:43;;;;;;;8.15;4.45;;;;;;;;;;5112899;28;20047;-64
2023/06/08 04:51:09;;;;;;;14.38;5.18;;;;;;;;;;5114228;28;20063;-65
2023/06/08 04:53:35;;;;;;;11.77;4.85;;;;;;;;;;5114364;28;20032;-64
2023/06/08 04:56:02;;;;;;;12.40;4.93;;;;;;;;;;5113993;28;20555;-64
2023/06/08 04:58:31;;;;;;;10.27;5.13;;;;;;;;;;5114035;28;20472;-65
2023/06/08 05:00:58;;;;;;;8.80;4.90;;;;;;;;;;5114023;28;20031;-64
2023/06/08 05:03:25;;;;;;;11.55;6.70;;;;;;;;;;5105198;28;20474;-64
2023/06/08 05:05:50;;;;;;;13.85;6.90;;;;;;;;;;5093577;28;20039;-64
2023/06/08 05:08:16;;;;;;;11.82;6.72;;;;;;;;;;5093582;28;20024;-65
2023/06/08 05:10:42;;;;;;;15.50;7.60;;;;;;;;;;5093261;28;20032;-65
2023/06/08 05:13:07;;;;;;;12.27;7.43;;;;;;;;;;5093588;28;20107;-65
2023/06/08 05:15:33;;;;;;;16.17;6.97;;;;;;;;;;5093445;28;20025;-65
2023/06/08 05:17:59;;;;;;;13.02;7.50;;;;;;;;;;5093032;28;20046;-64
2023/06/08 05:20:26;;;;;;;16.40;8.20;;;;;;;;;;5093090;28;20035;-64
2023/06/08 05:22:52;;;;;;;15.77;7.03;;;;;;;;;;5093348;28;20370;-64
2023/06/08 05:25:18;;;;;;;17.27;8.00;;;;;;;;;;5092991;28;20024;-65
2023/06/08 05:27:44;;;;;;;13.43;8.30;;;;;;;;;;5093208;28;20097;-65
2023/06/08 05:30:10;;;;;;;17.15;8.30;;;;;;;;;;5093338;28;20028;-64
2023/06/08 05:32:35;;;;;;;13.07;7.10;;;;;;;;;;5092965;28;20031;-64
2023/06/08 05:35:02;;;;;;;15.43;7.15;;;;;;;;;;5092875;28;20030;-64
2023/06/08 05:37:27;;;;;;;17.15;7.47;;;;;;;;;;5092826;28;20039;-64
2023/06/08 05:39:53;;;;;;;49.88;8.23;;;;;;;;;;5107546;28;20024;-64
2023/06/08 05:42:19;;;;;;;27.35;7.80;;;;;;;;;;5113250;28;20031;-64
2023/06/08 05:44:45;;;;;;;11.02;6.60;;;;;;;;;;5113097;28;20028;-64
2023/06/08 05:47:10;;;;;;;15.45;7.10;;;;;;;;;;5112388;28;20052;-65
2023/06/08 05:49:35;;;;;;;12.60;6.70;;;;;;;;;;5113155;28;20032;-64
2023/06/08 05:52:01;;;;;;;75.70;11.05;;;;;;;;;;5112884;28;20032;-64
2023/06/08 05:54:26;;;;;;;20.55;7.05;;;;;;;;;;5112910;28;20322;-64
2023/06/08 05:56:52;;;;;;;12.48;6.25;;;;;;;;;;5113225;28;20550;-64
2023/06/08 05:59:17;;;;;;;14.32;6.20;;;;;;;;;;5112994;28;20077;-64
2023/06/08 06:01:42;;;;;;;11.77;6.13;;;;;;;;;;5113050;28;20027;-64
2023/06/08 06:04:08;;;;;;;11.98;6.28;;;;;;;;;;5098005;28;20032;-64
2023/06/08 06:06:35;;;;;;;18.85;6.93;;;;;;;;;;5092792;28;20020;-64
2023/06/08 06:09:01;;;;;;;29.30;7.60;;;;;;;;;;5092240;28;20051;-64
2023/06/08 06:11:26;;;;;;;11.15;5.45;;;;;;;;;;5092706;28;20039;-65
2023/06/08 06:13:52;;;;;;;13.88;5.35;;;;;;;;;;5092589;28;20017;-65
2023/06/08 06:16:18;;;;;;;14.10;5.50;;;;;;;;;;5092609;28;20024;-64
2023/06/08 06:18:45;;;;;;;10.50;4.97;;;;;;;;;;5092269;28;20086;-65
2023/06/08 06:21:10;;;;;;;6.75;4.00;;;;;;;;;;5092535;28;20028;-65
2023/06/08 06:23:35;;;;;;;11.07;5.00;;;;;;;;;;5092479;28;20024;-64
2023/06/08 06:26:01;;;;;;;9.00;4.60;;;;;;;;;;5092493;28;20110;-64
2023/06/08 06:28:26;;;;;;;10.35;4.55;;;;;;;;;;5092495;28;20024;-65
2023/06/08 06:30:52;;;;;;;11.13;4.75;;;;;;;;;;5092497;28;20133;-64
2023/06/08 06:33:17;;;;;;;10.85;4.30;;;;;;;;;;5092486;28;20032;-64
2023/06/08 06:35:43;;;;;;;13.90;5.03;;;;;;;;;;5081563;28;20071;-64
2023/06/08 06:38:08;;;;;;;7.97;3.95;;;;;;;;;;5091555;28;20024;-64
2023/06/08 06:40:33;;;;;;;6.95;3.63;;;;;;;;;;5112694;28;20035;-64
2023/06/08 06:42:59;;;;;;;7.50;3.35;;;;;;;;;;5091920;28;20057;-64
2023/06/08 06:45:25;;;;;;;7.75;3.13;;;;;;;;;;5090978;28;20020;-64
2023/06/08 06:47:50;;;;;;;8.82;3.83;;;;;;;;;;5092093;28;20122;-64
2023/06/08 06:50:16;;;;;;;6.00;3.30;;;;;;;;;;5092436;28;20492;-64
2023/06/08 06:52:41;;;;;;;8.75;3.45;;;;;;;;;;5091888;28;20024;-64
2023/06/08 06:55:07;;;;;;;7.97;3.67;;;;;;;;;;5092157;28;20024;-64
2023/06/08 06:57:32;;;;;;;4.88;3.08;;;;;;;;;;5092290;28;20103;-64
2023/06/08 06:59:59;;;;;;;5.65;3.30;;;;;;;;;;5094860;28;20016;-64
2023/06/08 07:02:28;;;;;;;10.60;3.63;;;;;;;;;;5095648;28;20039;-64
2023/06/08 07:04:58;;;;;;;9.38;3.53;;;;;;;;;;5095265;28;20477;-64
2023/06/08 07:07:26;;;;;;;7.75;3.28;;;;;;;;;;5095013;28;20115;-64
2023/06/08 07:09:52;;;;;;;5.30;3.10;;;;;;;;;;5092513;28;20036;-64
2023/06/08 07:12:17;;;;;;;6.22;3.30;;;;;;;;;;5095240;28;20093;-64
2023/06/08 07:14:42;;;;;;;7.05;3.30;;;;;;;;;;5094025;28;20032;-64
2023/06/08 07:17:08;;;;;;;7.40;3.03;;;;;;;;;;5094114;28;20016;-64
2023/06/08 07:19:34;;;;;;;7.82;3.33;;;;;;;;;;5094479;28;20026;-64
2023/06/08 07:21:59;;;;;;;10.20;3.38;;;;;;;;;;5094975;28;20024;-65
2023/06/08 07:24:25;;;;;;;11.85;3.58;;;;;;;;;;5095495;28;20103;-64
2023/06/08 07:26:50;;;;;;;4.88;2.90;;;;;;;;;;5095086;28;20032;-65
2023/06/08 07:29:16;;;;;;;7.32;3.35;;;;;;;;;;5094960;28;20485;-64
2023/06/08 07:31:41;;;;;;;4.72;3.40;;;;;;;;;;5094767;28;20419;-64
2023/06/08 07:34:07;;;;;;;6.25;3.70;;;;;;;;;;5093471;28;20027;-64
2023/06/08 07:36:35;;;;;;;7.55;3.90;;;;;;;;;;5086849;28;20032;-64
2023/06/08 07:39:02;;;;;;;7.45;3.70;;;;;;;;;;5087026;28;20028;-63
2023/06/08 07:41:27;;;;;;;10.98;3.80;;;;;;;;;;5089467;28;20484;-64
2023/06/08 07:43:53;;;;;;;11.18;8.18;;;;;;;;;;5092418;28;20112;-64
2023/06/08 07:46:18;;;;;;;10.05;3.97;;;;;;;;;;5094646;28;20066;-64
2023/06/08 07:48:45;;;;;;;10.40;7.75;;;;;;;;;;5094079;28;20069;-64
2023/06/08 07:51:10;;;;;;;10.32;4.60;;;;;;;;;;5094361;28;20499;-63
2023/06/08 07:53:36;;;;;;;9.57;4.57;;;;;;;;;;5094453;28;20110;-64
2023/06/08 07:56:03;;;;;;;7.05;3.45;;;;;;;;;;5094768;28;20470;-64
2023/06/08 07:58:29;;;;;;;7.40;3.53;;;;;;;;;;5094798;28;20043;-64
2023/06/08 08:00:55;;;;;;;5.68;3.65;;;;;;;;;;5094635;28;20521;-64
2023/06/08 08:03:21;;;;;;;6.32;3.60;;;;;;;;;;5094280;28;20500;-65
2023/06/08 08:05:48;;;;;;;10.52;3.75;;;;;;;;;;5094853;28;20024;-64
2023/06/08 08:08:14;;;;;;;7.35;3.67;;;;;;;;;;5094466;28;20035;-65
2023/06/08 08:10:39;;;;;;;5.65;3.53;;;;;;;;;;5093982;28;20427;-65
2023/06/08 08:13:13;;;;;;;9.05;4.57;;;;;;;;;;5087937;28;20024;-65
2023/06/08 08:15:40;;;;;;;8.43;4.75;;;;;;;;;;5094841;28;20103;-63
2023/06/08 08:18:06;;;;;;;6.57;4.10;;;;;;;;;;5093707;28;20565;-63
2023/06/08 08:20:32;;;;;;;9.85;4.07;;;;;;;;;;5094200;28;20482;-63
2023/06/08 08:22:57;;;;;;;13.57;5.00;;;;;;;;;;5094653;28;20081;-64
2023/06/08 08:25:29;;;;;;;12.35;5.50;;;;;;;;;;5087157;28;20033;-66
2023/06/08 08:27:55;;;;;;;10.93;4.30;;;;;;;;;;5097524;28;20026;-63
2023/06/08 08:30:21;;;;;;;8.25;4.10;;;;;;;;;;5085167;28;20036;-64
2023/06/08 08:32:47;;;;;;;7.32;3.60;;;;;;;;;;5073558;28;20021;-65
2023/06/08 08:35:14;;;;;;;8.63;4.60;;;;;;;;;;5077620;28;20012;-64
2023/06/08 08:37:40;;;;;;;8.30;4.53;;;;;;;;;;5075918;28;20035;-65
2023/06/08 08:40:06;;;;;;;11.27;5.32;;;;;;;;;;5103097;28;20429;-64
2023/06/08 08:42:36;;;;;;;10.80;5.25;;;;;;;;;;5091855;28;20078;-64
2023/06/08 08:45:03;;;;;;;11.23;4.97;;;;;;;;;;5093566;28;20326;-64
2023/06/08 08:47:30;;;;;;;9.32;5.13;;;;;;;;;;5093430;28;20047;-64
2023/06/08 08:50:03;;;;;;;11.68;5.80;;;;;;;;;;5093882;28;20032;-64
2023/06/08 08:52:32;;;;;;;8.02;5.32;;;;;;;;;;5093811;28;20073;-65
2023/06/08 08:55:00;;;;;;;9.75;5.10;;;;;;;;;;5090435;28;20016;-64
2023/06/08 08:57:30;;;;;;;8.88;5.55;;;;;;;;;;5093424;28;20028;-65
2023/06/08 08:59:56;;;;;;;9.88;5.35;;;;;;;;;;5093643;28;20421;-65
2023/06/08 09:02:22;;;;;;;8.50;4.50;;;;;;;;;;5089889;28;20176;-64
2023/06/08 09:04:47;;;;;;;7.30;5.32;;;;;;;;;;5090217;28;20091;-65
2023/06/08 09:07:24;;;;;;;8.10;5.35;;;;;;;;;;5100852;28;20028;-65
2023/06/08 09:10:22;;;;;;;9.07;4.50;;;;;;;;;;5093562;28;20050;-64
2023/06/08 09:12:53;;;;;;;9.50;4.57;;;;;;;;;;5081486;28;20036;-64
2023/06/08 09:15:27;;;;;;;12.65;5.18;;;;;;;;;;5093184;28;20089;-64
2023/06/08 09:17:57;;;;;;;7.40;4.40;;;;;;;;;;5092710;28;20469;-64
2023/06/08 09:20:31;;;;;;;14.45;4.65;;;;;;;;;;5092753;28;20032;-64
2023/06/08 09:22:57;;;;;;;8.75;5.70;;;;;;;;;;5092116;28;20027;-64
2023/06/08 09:25:38;;;;;;;9.75;4.38;;;;;;;;;;5092899;28;20016;-64
2023/06/08 09:28:28;;;;;;;8.52;3.80;;;;;;;;;;5093109;28;20124;-64
2023/06/08 09:30:59;;;;;;;7.40;4.00;;;;;;;;;;5092734;28;20112;-64
2023/06/08 09:33:26;;;;;;;8.00;4.45;;;;;;;;;;5093019;28;20030;-64
2023/06/08 09:35:58;;;;;;;7.05;3.45;;;;;;;;;;5093041;28;20488;-64
2023/06/08 09:38:27;;;;;;;8.48;3.53;;;;;;;;;;5095232;28;20028;-64
2023/06/08 09:41:12;;;;;;;;;;;;;;;;;;5108470;28;20024;-64
2023/06/08 09:43:37;;;;;;;7.13;3.55;;;;;;;;;;5092920;28;19963;-64
2023/06/08 09:46:02;;;;;;;5.57;3.10;;;;;;;;;;5092456;28;20483;-64
2023/06/08 09:48:28;;;;;;;9.70;4.00;;;;;;;;;;5092294;28;20467;-64
2023/06/08 09:51:02;;;;;;;5.40;3.08;;;;;;;;;;5092765;28;20066;-65
2023/06/08 09:53:31;;;;;;;4.30;2.90;;;;;;;;;;5092776;28;20485;-65
2023/06/08 09:55:57;;;;;;;;;;;;;;;;;;5092714;28;20020;-65
2023/06/08 09:58:27;;;;;;;7.50;3.28;;;;;;;;;;5092547;28;19958;-65
2023/06/08 10:00:58;;;;;;;6.47;3.25;;;;;;;;;;5092477;28;20028;-66
2023/06/08 10:03:30;;;;;;;6.03;3.22;;;;;;;;;;5092528;28;20133;-65
2023/06/08 10:05:57;;;;;;;5.10;3.15;;;;;;;;;;5092698;28;20024;-65
2023/06/08 10:08:26;;;;;;;5.15;3.17;;;;;;;;;;5092623;28;20229;-65
2023/06/08 10:10:52;;;;;;;11.07;3.90;;;;;;;;;;5092241;28;20028;-65
2023/06/08 10:13:18;;;;;;;4.28;3.20;;;;;;;;;;5092382;28;20031;-65
2023/06/08 10:15:43;;;;;;;7.68;2.88;;;;;;;;;;5092235;28;20146;-65
2023/06/08 10:18:10;;;;;;;5.50;3.00;;;;;;;;;;5092228;28;20035;-65
2023/06/08 10:20:36;;;;;;;5.43;2.90;;;;;;;;;;5092244;28;20027;-65
2023/06/08 10:23:03;;;;;;;7.30;3.00;;;;;;;;;;5092178;28;20027;-65
2023/06/08 10:25:30;;;;;;;4.50;2.78;;;;;;;;;;5092361;28;20115;-65
2023/06/08 10:28:03;;;;;;;4.90;2.95;;;;;;;;;;5092477;28;20028;-65
2023/06/08 10:30:41;;;;;;;4.57;2.90;;;;;;;;;;5092375;28;20421;-64
2023/06/08 10:33:10;;;;;;;6.15;3.58;;;;;;;;;;5093766;28;20470;-65
2023/06/08 10:35:37;;;;;;;10.57;3.80;;;;;;;;;;5096367;28;20465;-65
2023/06/08 10:38:09;;;;;;;3.40;2.67;;;;;;;;;;5096179;28;20071;-66
2023/06/08 10:40:46;;;;;;;9.05;3.50;;;;;;;;;;5096216;28;20424;-65
2023/06/08 10:43:13;;;;;;;5.75;3.20;;;;;;;;;;5095944;28;20455;-65
2023/06/08 10:45:43;;;;;;;5.68;3.13;;;;;;;;;;5096005;28;20023;-65
2023/06/08 10:48:16;;;;;;;4.60;2.85;;;;;;;;;;5095702;28;20143;-64
2023/06/08 10:50:42;;;;;;;3.90;2.80;;;;;;;;;;5095756;28;20016;-64
2023/06/08 10:53:08;;;;;;;4.32;3.00;;;;;;;;;;5095799;28;20047;-65
2023/06/08 10:55:34;;;;;;;4.30;2.97;;;;;;;;;;5094621;28;20024;-65
2023/06/08 10:58:19;;;;;;;5.82;3.28;;;;;;;;;;5094634;28;20127;-66
2023/06/08 11:00:48;;;;;;;7.35;3.17;;;;;;;;;;5095795;28;20049;-65
2023/06/08 11:03:18;;;;;;;4.72;2.83;;;;;;;;;;5095824;28;20027;-65
2023/06/08 11:05:48;;;;;;;6.13;3.03;;;;;;;;;;5095636;28;20043;-65
2023/06/08 11:08:13;;;;;;;5.88;3.20;;;;;;;;;;5095670;28;20493;-65
2023/06/08 11:10:40;;;;;;;5.07;2.80;;;;;;;;;;5095824;28;20032;-66
2023/06/08 11:13:10;;;;;;;11.10;3.33;;;;;;;;;;5095233;28;20062;-66
2023/06/08 11:15:43;;;;;;;10.38;3.03;;;;;;;;;;5094399;28;20034;-65
2023/06/08 11:18:10;;;;;;;6.75;3.20;;;;;;;;;;5095846;28;20028;-65
2023/06/08 11:20:37;;;;;;;10.55;3.00;;;;;;;;;;5095554;28;20123;-65
2023/06/08 11:23:10;;;;;;;9.68;3.75;;;;;;;;;;5095106;28;20085;-65
2023/06/08 11:25:36;;;;;;;4.70;3.05;;;;;;;;;;5095470;28;20020;-65
2023/06/08 11:28:03;;;;;;;5.70;3.42;;;;;;;;;;5095225;28;20506;-66
2023/06/08 11:30:31;;;;;;;3.88;2.95;;;;;;;;;;5095056;28;20458;-65
2023/06/08 11:32:57;;;;;;;3.50;2.90;;;;;;;;;;5095153;28;20028;-65
2023/06/08 11:35:22;;;;;;;5.00;2.78;;;;;;;;;;5095106;28;20154;-64
2023/06/08 11:37:52;;;;;;;4.63;3.10;;;;;;;;;;5094897;28;20024;-65
2023/06/08 11:40:18;;;;;;;6.00;3.33;;;;;;;;;;5113677;28;20032;-65
2023/06/08 11:42:44;;;;;;;4.75;3.03;;;;;;;;;;5115261;28;20489;-65
2023/06/08 11:45:11;;;;;;;6.15;2.75;;;;;;;;;;5114376;28;20024;-64
2023/06/08 11:47:40;;;;;;;4.70;3.38;;;;;;;;;;5115003;28;20043;-64
2023/06/08 11:50:06;;;;;;;6.30;3.40;;;;;;;;;;5114190;28;20028;-64
2023/06/08 11:52:33;;;;;;;6.85;3.67;;;;;;;;;;5115135;28;20550;-64
2023/06/08 11:55:01;;;;;;;7.38;3.15;;;;;;;;;;5114852;28;20551;-64
2023/06/08 11:57:43;;;;;;;6.80;3.22;;;;;;;;;;5098650;28;20107;-64
2023/06/08 12:00:25;;;;;;;8.27;3.53;;;;;;;;;;5094677;28;20031;-64
2023/06/08 12:02:51;;;;;;;9.20;3.58;;;;;;;;;;5094544;28;20527;-63
2023/06/08 12:05:28;;;;;;;4.43;3.00;;;;;;;;;;5094407;28;20032;-64
2023/06/08 12:08:14;;;;;;;6.82;3.20;;;;;;;;;;5094689;28;20055;-65
2023/06/08 12:10:42;;;;;;;5.53;3.00;;;;;;;;;;5094307;28;20031;-65
2023/06/08 12:13:13;;;;;;;5.43;3.47;;;;;;;;;;5092991;28;20036;-65
2023/06/08 12:15:43;;;;;;;6.22;3.40;;;;;;;;;;5094444;28;20218;-65
2023/06/08 12:18:10;;;;;;;6.85;3.70;;;;;;;;;;5094145;28;20095;-65
2023/06/08 12:20:36;;;;;;;9.80;4.20;;;;;;;;;;5094334;28;20038;-65
2023/06/08 12:23:02;;;;;;;5.63;3.25;;;;;;;;;;5094292;28;20024;-63
2023/06/08 12:25:29;;;;;;;5.07;3.13;;;;;;;;;;5093938;28;20082;-66
2023/06/08 12:27:55;;;;;;;5.97;3.78;;;;;;;;;;5094078;28;20024;-65
2023/06/08 12:30:21;;;;;;;4.82;3.45;;;;;;;;;;5094175;28;20046;-65
2023/06/08 12:32:47;;;;;;;6.47;3.17;;;;;;;;;;5094155;28;20042;-65
2023/06/08 12:35:12;;;;;;;9.35;3.75;;;;;;;;;;5093895;28;20035;-63
2023/06/08 12:37:38;;;;;;;4.22;3.38;;;;;;;;;;5093719;28;20377;-63
2023/06/08 12:40:06;;;;;;;6.40;3.78;;;;;;;;;;5109894;28;20381;-66
2023/06/08 12:42:31;;;;;;;4.60;3.22;;;;;;;;;;5114205;28;20048;-63
2023/06/08 12:44:57;;;;;;;5.28;3.40;;;;;;;;;;5113749;28;20119;-63
2023/06/08 12:47:22;;;;;;;5.85;3.70;;;;;;;;;;5114027;28;20044;-66
2023/06/08 12:49:48;;;;;;;7.93;3.55;;;;;;;;;;5114186;28;20133;-65
2023/06/08 12:52:17;;;;;;;5.72;3.67;;;;;;;;;;5114129;28;20027;-66
2023/06/08 12:54:44;;;;;;;5.70;3.08;;;;;;;;;;5113856;28;20107;-66
2023/06/08 12:57:10;;;;;;;7.82;3.50;;;;;;;;;;5099857;28;20028;-66
2023/06/08 12:59:36;;;;;;;4.63;3.08;;;;;;;;;;5093462;28;20111;-65
2023/06/08 13:02:01;;;;;;;16.90;3.63;;;;;;;;;;5093479;28;20027;-65
2023/06/08 13:04:27;;;;;;;10.63;3.75;;;;;;;;;;5093159;28;20431;-65
2023/06/08 13:06:53;;;;;;;11.25;3.60;;;;;;;;;;5093488;28;20427;-66
2023/06/08 13:09:18;;;;;;;8.30;3.80;;;;;;;;;;5093067;28;20027;-65
2023/06/08 13:11:44;;;;;;;7.60;3.47;;;;;;;;;;5093153;28;20028;-64
2023/06/08 13:14:09;;;;;;;5.88;3.53;;;;;;;;;;5093313;28;20440;-65
2023/06/08 13:16:35;;;;;;;5.60;3.38;;;;;;;;;;5093232;28;20023;-65
2023/06/08 13:19:00;;;;;;;10.63;4.00;;;;;;;;;;5091675;28;20038;-65
2023/06/08 13:21:31;;;;;;;5.90;3.70;;;;;;;;;;5093225;28;20024;-65
2023/06/08 13:23:57;;;;;;;6.65;3.88;;;;;;;;;;5092538;28;20462;-65
2023/06/08 13:26:24;;;;;;;7.95;3.53;;;;;;;;;;5093035;28;20031;-65
2023/06/08 13:28:49;;;;;;;7.15;3.17;;;;;;;;;;5093132;28;20035;-66
2023/06/08 13:31:14;;;;;;;7.18;3.35;;;;;;;;;;5092933;28;20036;-64
2023/06/08 13:33:40;;;;;;;8.80;3.63;;;;;;;;;;5093098;28;20032;-65
2023/06/08 13:36:05;;;;;;;6.53;3.67;;;;;;;;;;5093010;28;20035;-65
2023/06/08 13:38:31;;;;;;;6.60;3.65;;;;;;;;;;5095895;28;20026;-65
2023/06/08 13:40:56;;;;;;;6.25;3.95;;;;;;;;;;5113203;28;20024;-65
2023/06/08 13:43:22;;;;;;;4.93;3.60;;;;;;;;;;5113041;28;20057;-65
2023/06/08 13:45:47;;;;;;;5.70;3.25;;;;;;;;;;5113117;28;20028;-65
2023/06/08 13:48:13;;;;;;;8.68;3.80;;;;;;;;;;5112871;28;20043;-66
2023/06/08 13:50:38;;;;;;;8.82;3.60;;;;;;;;;;5113069;28;20031;-65
2023/06/08 13:53:04;;;;;;;9.70;3.47;;;;;;;;;;5112389;28;20027;-65
2023/06/08 13:55:30;;;;;;;8.02;4.05;;;;;;;;;;5112950;28;20028;-64
2023/06/08 13:57:55;;;;;;;5.35;3.60;;;;;;;;;;5092596;28;20056;-65
2023/06/08 14:00:21;;;;;;;6.50;3.67;;;;;;;;;;5092596;28;20461;-65
2023/06/08 14:02:47;;;;;;;7.07;3.28;;;;;;;;;;5092556;28;20056;-65
2023/06/08 14:05:20;;;;;;;7.43;3.47;;;;;;;;;;5091179;28;20141;-65
2023/06/08 14:07:47;;;;;;;6.65;4.05;;;;;;;;;;5094633;28;20072;-65
2023/06/08 14:10:13;;;;;;;8.20;3.50;;;;;;;;;;5099093;28;20056;-65
2023/06/08 14:12:39;;;;;;;6.22;3.47;;;;;;;;;;5099085;28;20060;-65
2023/06/08 14:15:07;;;;;;;6.32;3.40;;;;;;;;;;5097769;28;20031;-65
2023/06/08 14:17:32;;;;;;;8.35;4.00;;;;;;;;;;5099036;28;20048;-66
2023/06/08 14:19:58;;;;;;;7.47;4.03;;;;;;;;;;5097700;28;20433;-64
2023/06/08 14:22:23;;;;;;;8.77;4.93;;;;;;;;;;5097700;28;20080;-63
2023/06/08 14:24:49;;;;;;;6.72;4.05;;;;;;;;;;5099108;28;20102;-66
2023/06/08 14:27:14;;;;;;;8.63;4.22;;;;;;;;;;5098997;28;20103;-65
2023/06/08 14:29:40;;;;;;;9.27;3.80;;;;;;;;;;5099111;28;20039;-65
2023/06/08 14:32:05;;;;;;;7.30;4.05;;;;;;;;;;5099022;28;20073;-65
2023/06/08 14:34:31;;;;;;;7.90;3.75;;;;;;;;;;5098806;28;20417;-65
2023/06/08 14:36:56;;;;;;;13.40;3.80;;;;;;;;;;5098620;28;20507;-66
2023/06/08 14:39:22;;;;;;;8.02;4.10;;;;;;;;;;5109643;28;20070;-65
2023/06/08 14:41:47;;;;;;;11.57;3.97;;;;;;;;;;5119407;27;20111;-64